Time;durP1;ratioP1;P1;durP2;ratioP2;P2;SDS_P1;SDS_P2;PMS_P1;PMS_P2;Temp;Humidity;BMP_temperature;BMP_pressure;BME280_temperature;BME280_humidity;BME280_pressure;Samples;Min_cycle;Max_cycle;Signal;HPM_P1;HPM_P2
2022/05/23 00:02:04;;;;;;;7.57;4.55;;;;;;;16.64;100.00;99683.13;5072343;28;20474;-73
2022/05/23 00:04:30;;;;;;;8.35;4.85;;;;;;;16.67;100.00;99677.53;5071523;28;20463;-73
2022/05/23 00:06:56;;;;;;;6.38;4.35;;;;;;;16.64;100.00;99669.84;5088117;28;20074;-73
2022/05/23 00:09:21;;;;;;;10.68;4.65;;;;;;;16.62;100.00;99670.00;5071556;28;20039;-74
2022/05/23 00:11:47;;;;;;;6.28;4.75;;;;;;;16.46;100.00;99644.91;5071255;28;20096;-73
2022/05/23 00:14:13;;;;;;;7.80;4.70;;;;;;;16.51;100.00;99648.00;5072761;28;20077;-72
2022/05/23 00:16:42;;;;;;;6.18;4.43;;;;;;;16.56;100.00;99661.75;5072502;28;20036;-72
2022/05/23 00:19:11;;;;;;;6.68;4.32;;;;;;;16.54;100.00;99660.97;5039392;28;20135;-72
2022/05/23 00:21:38;;;;;;;8.35;5.30;;;;;;;16.35;100.00;99636.06;5028937;28;20040;-72
2022/05/23 00:24:04;;;;;;;7.57;4.93;;;;;;;16.54;100.00;99667.13;5028506;28;20087;-72
2022/05/23 00:26:30;;;;;;;7.22;4.97;;;;;;;16.46;100.00;99648.38;5032181;28;20097;-72
2022/05/23 00:28:55;;;;;;;8.00;5.60;;;;;;;16.20;100.00;99600.25;5031433;28;20021;-72
2022/05/23 00:31:21;;;;;;;7.90;4.90;;;;;;;16.43;100.00;99637.19;5049492;28;20028;-72
2022/05/23 00:36:32;;;;;;;8.95;5.15;;;;;;;16.45;100.00;99652.03;5076228;28;20039;-72
2022/05/23 00:38:57;;;;;;;8.63;5.25;;;;;;;16.35;100.00;99648.50;5075035;28;20071;-72
2022/05/23 00:44:25;;;;;;;8.38;4.55;;;;;;;16.28;100.00;99634.06;5095996;28;20043;-72
2022/05/23 00:46:57;;;;;;;9.57;5.47;;;;;;;16.38;100.00;99648.22;5096407;28;20031;-72
2022/05/23 00:49:35;;;;;;;7.07;5.00;;;;;;;16.28;100.00;99640.22;5096212;28;20482;-72
2022/05/23 00:52:06;;;;;;;8.20;4.40;;;;;;;16.26;100.00;99642.16;5096414;28;20028;-72
2022/05/23 00:54:38;;;;;;;10.05;5.38;;;;;;;16.30;100.00;99656.81;5095217;28;20047;-73
2022/05/23 00:57:05;;;;;;;7.85;4.75;;;;;;;16.26;100.00;99650.09;5091386;28;20024;-73
2022/05/23 00:59:32;;;;;;;7.95;4.95;;;;;;;16.25;100.00;99648.44;5074649;28;20401;-73
2022/05/23 01:02:00;;;;;;;7.22;4.47;;;;;;;16.10;100.00;99636.47;5091205;28;20494;-73
2022/05/23 01:04:25;;;;;;;9.30;4.65;;;;;;;16.11;100.00;99645.28;5075910;28;20090;-73
2022/05/23 01:06:51;;;;;;;6.97;4.40;;;;;;;15.93;100.00;99634.41;5091513;28;20437;-73
2022/05/23 01:09:16;;;;;;;7.70;4.57;;;;;;;16.04;100.00;99657.38;5075494;28;20024;-73
2022/05/23 01:11:42;;;;;;;10.02;4.60;;;;;;;15.97;100.00;99642.94;5075859;28;20090;-73
2022/05/23 01:14:07;;;;;;;12.88;4.95;;;;;;;15.90;100.00;99642.63;5075521;28;20032;-73
2022/05/23 01:16:33;;;;;;;6.97;4.32;;;;;;;15.85;100.00;99639.50;5074402;28;20052;-73
2022/05/23 01:18:58;;;;;;;6.93;3.90;;;;;;;15.91;100.00;99654.06;5075581;28;20032;-73
2022/05/23 01:21:42;;;;;;;10.55;5.05;;;;;;;15.91;100.00;99664.66;5075411;28;20074;-74
2022/05/23 01:24:34;;;;;;;7.13;4.47;;;;;;;15.85;100.00;99664.19;5075193;28;20082;-74
2022/05/23 01:26:59;;;;;;;7.30;4.38;;;;;;;15.78;100.00;99662.22;5091463;28;20036;-74
2022/05/23 01:29:24;;;;;;;8.00;5.13;;;;;;;15.74;100.00;99658.97;5090867;28;20039;-74
2022/05/23 01:31:50;;;;;;;10.15;5.20;;;;;;;15.60;100.00;99642.53;5075458;28;20506;-74
2022/05/23 01:34:15;;;;;;;10.95;5.10;;;;;;;15.60;100.00;99637.25;5075390;28;20036;-74
2022/05/23 01:36:41;;;;;;;5.47;4.35;;;;;;;15.59;100.00;99640.84;5074030;28;20029;-73
2022/05/23 01:39:06;;;;;;;8.10;4.13;;;;;;;15.52;100.00;99637.88;5075177;28;20462;-73
2022/05/23 01:41:31;;;;;;;9.25;4.72;;;;;;;15.41;100.00;99637.06;5103183;28;20032;-73
2022/05/23 01:43:57;;;;;;;7.97;4.95;;;;;;;15.29;100.00;99620.38;5094658;28;20036;-73
2022/05/23 01:46:22;;;;;;;11.45;5.47;;;;;;;14.96;100.00;99572.84;5093445;28;20535;-73
2022/05/23 01:48:47;;;;;;;6.38;4.80;;;;;;;15.16;100.00;99607.31;5095117;28;20032;-73
2022/05/23 01:51:13;;;;;;;11.02;4.80;;;;;;;15.16;100.00;99617.88;5095056;28;20059;-73
2022/05/23 01:53:38;;;;;;;5.60;4.13;;;;;;;15.13;100.00;99612.84;5094026;28;20032;-73
2022/05/23 01:56:05;;;;;;;6.50;4.00;;;;;;;15.13;100.00;99612.00;5094955;28;20471;-73
2022/05/23 02:01:14;;;;;;;8.23;4.53;;;;;;;15.01;100.00;99602.41;5093611;28;20038;-72
2022/05/23 02:03:41;;;;;;;8.80;3.92;;;;;;;15.08;100.00;99619.47;5093662;28;20106;-72
2022/05/23 02:06:07;;;;;;;7.13;4.93;;;;;;;15.03;100.00;99617.22;5094981;28;20386;-72
2022/05/23 02:08:32;;;;;;;10.10;5.07;;;;;;;14.95;100.00;99608.19;5094657;28;20035;-72
2022/05/23 02:10:57;;;;;;;6.20;5.00;;;;;;;14.95;100.00;99603.75;5093737;28;20060;-72
2022/05/23 02:13:23;;;;;;;6.85;4.53;;;;;;;14.84;100.00;99593.19;5094481;28;20439;-72
2022/05/23 02:15:48;;;;;;;7.55;4.90;;;;;;;14.79;100.00;99582.16;5095023;28;20055;-72
2022/05/23 02:18:13;;;;;;;7.15;4.93;;;;;;;14.78;100.00;99575.16;5094884;28;20024;-72
2022/05/23 02:20:39;;;;;;;7.72;4.72;;;;;;;14.66;100.00;99566.44;5094400;28;20027;-72
2022/05/23 02:23:04;;;;;;;9.00;5.50;;;;;;;14.79;100.00;99592.72;5094507;28;20374;-72
2022/05/23 02:25:30;;;;;;;7.05;4.70;;;;;;;14.83;100.00;99599.47;5094936;28;20029;-72
2022/05/23 02:27:56;;;;;;;7.32;5.00;;;;;;;14.80;100.00;99599.72;5094518;28;20394;-72
2022/05/23 02:30:22;;;;;;;6.00;4.97;;;;;;;14.81;100.00;99601.38;5094069;28;20039;-72
2022/05/23 02:32:48;;;;;;;14.57;5.47;;;;;;;14.68;100.00;99582.16;5094384;28;20059;-72
2022/05/23 02:35:15;;;;;;;6.93;4.50;;;;;;;14.76;100.00;99596.47;5093035;28;21190;-72
2022/05/23 02:37:41;;;;;;;15.05;5.13;;;;;;;14.51;100.00;99550.94;5093009;28;20039;-72
2022/05/23 02:40:07;;;;;;;5.88;4.50;;;;;;;14.68;100.00;99568.94;5092935;28;20032;-72
2022/05/23 02:42:33;;;;;;;6.78;4.28;;;;;;;14.67;100.00;99572.53;5092636;28;20039;-72
2022/05/23 02:44:58;;;;;;;7.45;4.57;;;;;;;14.26;100.00;99505.28;5093001;28;20058;-72
2022/05/23 02:47:23;;;;;;;10.40;4.63;;;;;;;14.61;100.00;99565.09;5092449;28;20393;-73
2022/05/23 02:49:49;;;;;;;13.40;4.40;;;;;;;14.63;100.00;99577.22;5093097;28;20036;-73
2022/05/23 02:52:14;;;;;;;8.10;4.93;;;;;;;14.59;100.00;99561.75;5093962;28;20020;-74
2022/05/23 02:54:39;;;;;;;7.10;4.40;;;;;;;14.48;100.00;99541.44;5092739;28;20096;-74
2022/05/23 02:57:06;;;;;;;7.63;4.97;;;;;;;14.24;100.00;99501.09;5094068;28;20051;-73
2022/05/23 02:59:31;;;;;;;5.10;4.57;;;;;;;14.37;100.00;99527.41;5093666;28;20039;-73
2022/05/23 03:04:42;;;;;;;5.55;4.45;;;;;;;14.38;100.00;99523.81;5092972;28;20398;-72
2022/05/23 03:07:08;;;;;;;7.22;4.25;;;;;;;14.27;100.00;99506.97;5092585;28;20111;-72
2022/05/23 03:09:33;;;;;;;5.50;4.22;;;;;;;14.19;100.00;99490.88;5093694;28;20070;-73
2022/05/23 03:11:59;;;;;;;8.20;4.20;;;;;;;14.32;100.00;99504.81;5093640;28;20034;-72
2022/05/23 03:14:26;;;;;;;7.07;3.83;;;;;;;14.31;100.00;99505.75;5093794;28;20036;-72
2022/05/23 03:16:51;;;;;;;11.02;4.32;;;;;;;14.32;100.00;99504.81;5093300;28;20550;-72
2022/05/23 03:19:17;;;;;;;5.72;4.00;;;;;;;14.27;100.00;99485.81;5092372;28;20103;-72
2022/05/23 03:27:10;;;;;;;5.45;3.67;;;;;;;14.13;100.00;99435.88;5093460;28;20080;-72
2022/05/23 03:29:35;;;;;;;4.68;3.38;;;;;;;14.33;100.00;99464.22;5093030;28;20150;-71
2022/05/23 03:32:01;;;;;;;7.43;3.70;;;;;;;14.18;100.00;99431.09;5093386;28;20069;-72
2022/05/23 03:34:27;;;;;;;6.30;3.85;;;;;;;14.29;100.00;99440.78;5093219;28;20106;-73
2022/05/23 03:36:52;;;;;;;9.48;3.55;;;;;;;14.33;100.00;99437.78;5091920;28;20119;-73
2022/05/23 03:39:17;;;;;;;7.47;4.45;;;;;;;14.39;100.00;99440.91;5093063;28;20028;-74
2022/05/23 03:41:43;;;;;;;5.00;3.35;;;;;;;14.22;100.00;99411.38;5093250;28;20032;-73
2022/05/23 03:44:08;;;;;;;18.48;4.28;;;;;;;14.24;100.00;99409.44;5093121;28;20093;-72
2022/05/23 03:46:37;;;;;;;6.47;3.65;;;;;;;14.27;100.00;99414.47;5093268;28;20032;-74
2022/05/23 03:49:03;;;;;;;6.43;3.88;;;;;;;14.23;100.00;99409.56;5083649;28;20475;-73
2022/05/23 03:51:29;;;;;;;6.70;3.38;;;;;;;14.32;100.00;99428.16;5081723;28;20406;-73
2022/05/23 03:53:54;;;;;;;5.57;4.25;;;;;;;14.33;100.00;99424.56;5090967;28;20032;-74
2022/05/23 03:56:20;;;;;;;5.55;3.88;;;;;;;14.24;100.00;99406.81;5093205;28;20107;-73
2022/05/23 03:58:45;;;;;;;7.65;3.92;;;;;;;14.39;100.00;99432.97;5091112;28;20532;-74
2022/05/23 04:01:17;;;;;;;6.85;3.70;;;;;;;14.39;100.00;99422.41;5092588;28;20031;-74
2022/05/23 04:03:42;;;;;;;5.80;4.18;;;;;;;14.00;100.00;99349.81;5091945;28;20035;-74
2022/05/23 04:06:08;;;;;;;5.22;3.75;;;;;;;14.28;100.00;99392.38;5091421;28;20028;-74
2022/05/23 04:08:34;;;;;;;4.93;3.20;;;;;;;14.44;100.00;99412.28;5093019;28;20098;-73
2022/05/23 04:11:00;;;;;;;5.63;4.40;;;;;;;14.25;100.00;99371.50;5074793;28;20016;-73
2022/05/23 04:13:26;;;;;;;5.50;3.78;;;;;;;14.49;100.00;99405.69;5091194;28;20041;-71
2022/05/23 04:15:52;;;;;;;9.65;3.97;;;;;;;14.41;100.00;99364.97;5093005;28;20480;-72
2022/05/23 04:18:17;;;;;;;5.90;3.90;;;;;;;14.57;100.00;99389.16;5093080;28;20060;-70
2022/05/23 04:20:43;;;;;;;7.80;4.15;;;;;;;14.63;100.00;99386.03;5091508;28;20048;-71
2022/05/23 04:23:09;;;;;;;4.75;3.42;;;;;;;14.63;100.00;99370.16;5092868;28;20066;-71
2022/05/23 04:25:39;;;;;;;9.95;3.63;;;;;;;14.71;100.00;99383.56;5092348;28;20051;-71
2022/05/23 04:28:04;;;;;;;14.90;4.05;;;;;;;14.64;100.00;99361.25;5092843;28;20039;-72
2022/05/23 04:30:30;;;;;;;7.28;3.38;;;;;;;14.82;100.00;99376.44;5087678;28;20028;-72
2022/05/23 04:35:39;;;;;;;5.32;3.40;;;;;;;14.85;100.00;99359.47;5085623;28;20082;-72
2022/05/23 04:38:04;;;;;;;4.57;3.42;;;;;;;14.79;100.00;99344.13;5072349;28;20421;-72
2022/05/23 04:40:30;;;;;;;5.50;3.22;;;;;;;14.90;100.00;99357.28;5072225;28;20119;-72
2022/05/23 04:42:55;;;;;;;4.15;2.72;;;;;;;15.13;100.00;99374.69;5087678;28;20031;-70
2022/05/23 04:45:22;;;;;;;5.60;2.70;;;;;;;15.15;100.00;99358.66;5072127;28;20032;-72
2022/05/23 04:50:33;;;;;;;10.73;3.30;;;;;;;15.37;100.00;99360.31;5085867;28;20040;-72
2022/05/23 04:52:58;;;;;;;4.45;2.72;;;;;;;15.45;100.00;99361.31;5072489;28;20094;-72
2022/05/23 04:55:24;;;;;;;7.47;2.72;;;;;;;15.53;100.00;99376.56;5071805;28;20028;-72
2022/05/23 04:57:50;;;;;;;4.13;2.55;;;;;;;15.55;100.00;99364.88;5072271;28;20360;-72
2022/05/23 05:00:18;;;;;;;5.35;3.00;;;;;;;15.60;100.00;99361.81;5032923;28;20131;-72
2022/05/23 05:02:44;;;;;;;5.15;3.17;;;;;;;15.57;100.00;99351.50;5032794;28;20024;-72
2022/05/23 05:05:10;;;;;;;9.27;3.55;;;;;;;15.45;100.00;99316.28;5043972;28;20046;-72
2022/05/23 05:07:35;;;;;;;5.10;3.15;;;;;;;15.65;100.00;99343.72;5044699;28;20989;-71
2022/05/23 05:10:01;;;;;;;7.43;3.28;;;;;;;15.74;100.00;99333.16;5029647;28;20125;-72
2022/05/23 05:12:26;;;;;;;6.78;3.00;;;;;;;15.74;100.00;99325.22;5032354;28;20029;-71
2022/05/23 05:14:51;;;;;;;6.05;3.35;;;;;;;15.71;100.00;99309.59;5031750;28;20904;-72
2022/05/23 05:17:17;;;;;;;4.57;3.25;;;;;;;15.82;100.00;99317.41;5031627;28;20028;-72
2022/05/23 05:19:43;;;;;;;4.35;2.70;;;;;;;15.82;100.00;99308.63;5032642;28;20895;-72
2022/05/23 05:22:08;;;;;;;5.13;3.38;;;;;;;15.86;100.00;99304.72;5036436;28;20093;-71
2022/05/23 05:24:34;;;;;;;7.07;3.80;;;;;;;15.84;100.00;99304.88;5033673;28;20075;-72
2022/05/23 05:27:02;;;;;;;5.30;3.40;;;;;;;15.89;100.00;99308.91;5032551;28;21023;-73
2022/05/23 05:29:28;;;;;;;7.85;3.70;;;;;;;15.85;100.00;99303.03;5048281;28;20257;-72
2022/05/23 05:31:57;;;;;;;5.82;3.17;;;;;;;16.01;100.00;99319.28;5047088;28;20518;-72
2022/05/23 05:34:27;;;;;;;5.65;3.08;;;;;;;16.05;100.00;99315.38;5030853;28;20036;-72
2022/05/23 05:36:59;;;;;;;5.10;3.45;;;;;;;16.04;100.00;99297.78;5032037;28;20912;-72
2022/05/23 05:39:27;;;;;;;5.63;3.17;;;;;;;16.16;100.00;99307.28;5030487;28;20036;-73
2022/05/23 05:41:52;;;;;;;9.25;3.53;;;;;;;16.27;100.00;99307.13;5045813;28;20016;-72
2022/05/23 05:44:20;;;;;;;10.05;3.33;;;;;;;16.26;100.00;99281.59;5067936;28;20035;-72
2022/05/23 05:46:48;;;;;;;5.15;2.78;;;;;;;16.39;100.00;99285.78;5052655;28;20039;-72
2022/05/23 05:49:19;;;;;;;5.40;2.63;;;;;;;16.07;100.00;99218.00;5050494;28;20086;-71
2022/05/23 05:51:46;;;;;;;7.45;3.40;;;;;;;16.36;100.00;99245.31;5052524;28;20140;-71
2022/05/23 05:54:16;;;;;;;5.97;2.85;;;;;;;16.55;100.00;99264.84;5051725;28;20229;-72
2022/05/23 05:56:43;;;;;;;5.32;3.17;;;;;;;16.61;100.00;99275.75;5051229;28;20229;-72
2022/05/23 05:59:09;;;;;;;5.93;3.40;;;;;;;16.67;100.00;99279.63;5033781;28;20842;-72
2022/05/23 06:01:34;;;;;;;4.35;2.80;;;;;;;16.69;100.00;99277.69;5050095;28;20032;-72
2022/05/23 06:04:00;;;;;;;5.10;2.80;;;;;;;16.75;100.00;99283.25;5051809;28;20092;-72
2022/05/23 06:11:53;;;;;;;9.02;4.00;;;;;;;16.82;100.00;99278.19;5052418;28;20825;-72
2022/05/23 06:14:18;;;;;;;5.13;2.92;;;;;;;16.79;100.00;99271.38;5053060;28;20024;-72
2022/05/23 06:16:44;;;;;;;5.10;2.58;;;;;;;16.89;100.00;99287.25;5051832;28;20086;-73
2022/05/23 06:19:09;;;;;;;5.00;3.08;;;;;;;16.85;100.00;99264.66;5051851;28;20827;-72
2022/05/23 06:21:35;;;;;;;5.18;2.92;;;;;;;16.93;100.00;99270.09;5050619;28;20020;-72
2022/05/23 06:24:00;;;;;;;9.25;4.25;;;;;;;16.82;100.00;99249.03;5051262;28;20020;-72
2022/05/23 06:26:26;;;;;;;5.00;3.13;;;;;;;17.07;100.00;99271.41;5052500;28;20020;-72
2022/05/23 06:28:52;;;;;;;5.32;3.70;;;;;;;17.07;100.00;99264.28;5049708;28;20130;-72
2022/05/23 06:31:18;;;;;;;4.65;2.53;;;;;;;17.12;100.00;99269.16;5050890;28;20072;-72
2022/05/23 06:33:44;;;;;;;9.40;3.70;;;;;;;17.08;100.00;99267.78;5049710;28;20036;-72
2022/05/23 06:36:11;;;;;;;5.88;3.03;;;;;;;17.16;100.00;99266.06;5050191;28;20129;-72
2022/05/23 06:38:37;;;;;;;7.07;3.42;;;;;;;17.28;100.00;99285.28;5050310;28;21027;-72
2022/05/23 06:41:04;;;;;;;6.32;3.58;;;;;;;17.33;100.00;99283.06;5050049;28;20085;-72
2022/05/23 06:43:30;;;;;;;5.82;3.53;;;;;;;17.09;100.00;99221.66;5050376;28;20878;-72
2022/05/23 06:45:55;;;;;;;6.82;3.67;;;;;;;17.41;100.00;99258.38;5051429;28;20139;-72
2022/05/23 06:48:22;;;;;;;6.25;3.70;;;;;;;17.53;100.00;99270.50;5048463;28;20082;-72
2022/05/23 06:50:50;;;;;;;7.13;3.95;;;;;;;17.57;100.00;99258.63;5040459;28;20028;-72
2022/05/23 06:53:15;;;;;;;7.25;3.72;;;;;;;17.77;100.00;99265.50;5049656;28;20884;-71
2022/05/23 06:55:41;;;;;;;8.95;4.72;;;;;;;17.89;100.00;99269.59;5050644;28;20105;-71
2022/05/23 06:58:07;;;;;;;9.95;3.60;;;;;;;17.99;100.00;99258.88;5051906;28;20874;-72
2022/05/23 07:00:33;;;;;;;9.88;3.72;;;;;;;18.15;100.00;99259.84;5051215;28;20027;-72
2022/05/23 07:02:58;;;;;;;7.15;4.10;;;;;;;18.32;100.00;99264.34;5049462;28;20035;-72
2022/05/23 07:13:40;;;;;;;12.43;4.23;;;;;;;18.63;100.00;99221.34;5054411;28;20124;-72
2022/05/23 07:16:07;;;;;;;7.78;3.65;;;;;;;18.81;100.00;99246.09;5052243;28;20044;-72
2022/05/23 07:18:33;;;;;;;9.95;4.35;;;;;;;18.93;100.00;99239.50;5052205;28;20123;-73
2022/05/23 07:20:58;;;;;;;10.25;4.57;;;;;;;19.02;100.00;99249.22;5049634;28;20026;-72
2022/05/23 07:23:23;;;;;;;7.22;3.55;;;;;;;18.98;100.00;99242.53;5049846;28;20032;-72
2022/05/23 07:25:49;;;;;;;9.25;4.07;;;;;;;19.01;100.00;99249.38;5052515;28;20031;-72
2022/05/23 07:28:14;;;;;;;6.20;4.00;;;;;;;18.86;100.00;99227.81;5049956;28;20093;-71
2022/05/23 07:30:42;;;;;;;7.32;3.78;;;;;;;18.91;100.00;99232.66;5048478;28;20037;-72
2022/05/23 07:33:08;;;;;;;10.40;3.92;;;;;;;18.60;100.00;99171.94;5049231;28;20138;-71
2022/05/23 07:35:34;;;;;;;5.85;3.25;;;;;;;18.94;100.00;99229.69;5050315;28;20924;-72
2022/05/23 07:37:59;;;;;;;11.30;3.60;;;;;;;18.70;100.00;99187.81;5049564;28;20035;-72
2022/05/23 07:40:25;;;;;;;10.38;3.90;;;;;;;19.00;100.00;99243.19;5049732;28;20036;-73
2022/05/23 07:42:51;;;;;;;6.13;3.75;;;;;;;18.96;100.00;99223.19;5048383;28;20020;-72
2022/05/23 07:45:16;;;;;;;7.70;3.45;;;;;;;19.09;100.00;99228.13;5048132;28;20095;-72
2022/05/23 07:47:41;;;;;;;8.93;2.88;;;;;;;19.15;100.00;99219.47;5048182;28;20147;-72
2022/05/23 07:50:09;;;;;;;7.88;4.03;;;;;;;19.15;100.00;99216.81;5048971;28;20102;-72
2022/05/23 07:52:35;;;;;;;7.10;3.20;;;;;;;19.25;100.00;99212.19;5048778;28;20028;-72
2022/05/23 08:03:06;;;;;;;6.20;3.33;;;;;;;19.66;100.00;99206.03;5048628;28;20278;-72
2022/05/23 08:05:32;;;;;;;8.88;3.78;;;;;;;19.71;100.00;99205.50;5050923;28;20032;-72
2022/05/23 08:07:57;;;;;;;5.60;3.15;;;;;;;19.74;100.00;99194.50;5049442;28;20914;-72
2022/05/23 08:10:24;;;;;;;17.65;3.45;;;;;;;19.79;100.00;99184.19;5047947;28;20035;-73
2022/05/23 08:12:52;;;;;;;7.00;3.42;;;;;;;20.07;100.00;99203.41;5049697;28;20943;-72
2022/05/23 08:15:19;;;;;;;6.43;2.72;;;;;;;20.11;100.00;99200.22;5048601;28;20880;-72
2022/05/23 08:17:44;;;;;;;4.43;2.78;;;;;;;20.20;100.00;99188.56;5050286;28;20036;-72
2022/05/23 08:20:10;;;;;;;5.50;2.92;;;;;;;20.23;100.00;99190.88;5049730;28;20131;-75
2022/05/23 08:22:35;;;;;;;5.75;2.58;;;;;;;20.06;100.00;99159.88;5048755;28;20055;-72
2022/05/23 08:25:01;;;;;;;4.68;2.60;;;;;;;20.28;100.00;99193.91;5050073;28;20889;-72
2022/05/23 08:27:27;;;;;;;8.27;3.13;;;;;;;20.40;100.00;99207.75;5048229;28;20491;-72
2022/05/23 08:29:53;;;;;;;4.13;2.58;;;;;;;20.34;100.00;99184.41;5048761;28;20097;-74
2022/05/23 08:32:20;;;;;;;5.20;2.22;;;;;;;20.43;100.00;99196.72;5049809;28;20024;-72
2022/05/23 08:34:47;;;;;;;5.25;2.33;;;;;;;20.48;100.00;99198.91;5049934;28;20895;-72
2022/05/23 08:37:12;;;;;;;6.28;2.67;;;;;;;20.35;100.00;99181.56;5048975;28;20838;-73
2022/05/23 08:39:38;;;;;;;4.55;2.13;;;;;;;20.37;100.00;99174.22;5049306;28;20024;-72
2022/05/23 08:42:17;;;;;;;4.57;2.45;;;;;;;20.41;100.00;99166.72;5049524;28;20034;-72
2022/05/23 08:45:08;;;;;;;4.32;2.67;;;;;;;20.56;100.00;99177.50;5048102;28;20133;-73
2022/05/23 08:47:41;;;;;;;7.30;2.17;;;;;;;20.33;100.00;99124.88;5033924;28;20055;-73
2022/05/23 08:50:20;;;;;;;4.03;2.03;;;;;;;20.66;100.00;99167.47;5053814;28;20430;-73
2022/05/23 08:52:53;;;;;;;3.92;2.28;;;;;;;20.57;100.00;99157.84;5053129;28;20356;-73
2022/05/23 08:55:30;;;;;;;4.50;2.03;;;;;;;20.63;100.00;99167.81;5053777;28;20229;-73
2022/05/23 08:58:14;;;;;;;7.47;2.33;;;;;;;20.67;100.00;99153.97;5051354;28;20529;-73
2022/05/23 09:00:48;;;;;;;4.60;2.28;;;;;;;20.75;100.00;99156.59;5052087;28;20074;-73
2022/05/23 09:03:42;;;;;;;6.47;2.10;;;;;;;20.87;100.00;99165.06;5052024;28;20881;-73
2022/05/23 09:06:10;;;;;;;3.53;2.20;;;;;;;21.04;100.00;99156.00;5049071;28;20066;-72
2022/05/23 09:08:58;;;;;;;5.43;2.10;;;;;;;21.12;100.00;99153.34;5055317;28;20036;-72
2022/05/23 09:11:39;;;;;;;6.20;3.03;;;;;;;20.96;100.00;99125.81;5052393;28;20028;-72
2022/05/23 09:14:05;;;;;;;5.00;2.30;;;;;;;20.98;100.00;99134.50;5053856;28;20035;-74
2022/05/23 09:16:40;;;;;;;6.82;2.53;;;;;;;21.01;100.00;99139.47;5051627;28;20056;-72
2022/05/23 09:19:24;;;;;;;4.50;2.55;;;;;;;20.89;100.00;99128.34;5052928;28;20032;-72
2022/05/23 09:24:45;;;;;;;4.75;2.30;;;;;;;20.73;100.00;99117.72;5055748;28;20051;-72
2022/05/23 09:27:17;;;;;;;5.25;2.30;;;;;;;20.73;100.00;99109.72;5053507;28;20024;-72
2022/05/23 09:29:45;;;;;;;6.72;2.85;;;;;;;20.75;100.00;99091.72;5056590;28;20032;-72
2022/05/23 09:32:17;;;;;;;5.40;2.70;;;;;;;20.83;100.00;99081.81;5060315;28;20028;-75
2022/05/23 09:34:57;;;;;;;7.30;2.38;;;;;;;20.81;100.00;99056.28;5059669;28;20036;-71
2022/05/23 09:37:49;;;;;;;5.93;2.75;;;;;;;20.99;100.00;99083.53;5068147;28;20032;-73
2022/05/23 09:40:30;;;;;;;4.05;2.55;;;;;;;20.86;100.00;99067.25;5051933;28;20075;-72
2022/05/23 09:49:06;;;;;;;5.97;2.88;;;;;;;21.08;100.00;99055.81;5049151;28;20041;-72
2022/05/23 09:51:33;;;;;;;5.97;2.38;;;;;;;21.12;100.00;99034.94;5067310;28;20061;-72
2022/05/23 09:54:01;;;;;;;9.70;2.60;;;;;;;21.26;100.00;99043.00;5059159;28;20123;-71
2022/05/23 09:56:30;;;;;;;5.15;2.47;;;;;;;21.26;100.00;99043.00;5065210;28;20090;-72
2022/05/23 09:58:58;;;;;;;6.80;2.80;;;;;;;21.36;100.00;99048.94;5061442;28;20025;-71
2022/05/23 10:01:29;;;;;;;4.90;2.53;;;;;;;21.52;100.00;99044.50;5079950;28;20416;-72
2022/05/23 10:03:55;;;;;;;4.00;2.00;;;;;;;21.70;100.00;99045.81;5078346;28;20394;-72
2022/05/23 10:06:32;;;;;;;4.55;2.65;;;;;;;21.88;100.00;99037.47;5075163;28;20086;-73
2022/05/23 10:08:58;;;;;;;4.40;2.70;;;;;;;22.05;100.00;99043.50;5054733;28;20043;-72
2022/05/23 10:11:31;;;;;;;5.10;2.42;;;;;;;22.16;100.00;99040.41;5076080;28;20097;-72
2022/05/23 10:13:58;;;;;;;7.07;2.90;;;;;;;22.19;100.00;99035.50;5075190;28;20134;-71
2022/05/23 10:16:27;;;;;;;6.30;2.58;;;;;;;22.23;100.00;99026.09;5086284;28;20099;-74
2022/05/23 10:18:57;;;;;;;5.93;2.88;;;;;;;22.30;100.00;99016.31;5086057;28;20054;-75
2022/05/23 10:21:27;;;;;;;5.45;2.78;;;;;;;22.61;100.00;99025.97;5084279;28;20058;-72
2022/05/23 10:24:18;;;;;;;10.50;3.15;;;;;;;22.80;100.00;99025.41;5084265;28;20034;-72
2022/05/23 10:26:52;;;;;;;6.07;2.85;;;;;;;22.88;100.00;98998.50;5084795;28;20101;-72
2022/05/23 10:29:44;;;;;;;8.45;3.40;;;;;;;22.84;100.00;98965.91;5086870;28;20065;-72
2022/05/23 10:32:12;;;;;;;7.35;2.90;;;;;;;23.09;100.00;99006.53;5088846;28;20090;-72
2022/05/23 10:34:48;;;;;;;5.68;2.83;;;;;;;23.14;100.00;98990.75;5086732;28;20024;-72
2022/05/23 10:37:23;;;;;;;6.20;2.78;;;;;;;23.18;100.00;98994.69;5065626;28;20090;-73
2022/05/23 10:42:57;;;;;;;4.68;2.53;;;;;;;23.50;100.00;98977.25;5066091;28;20039;-74
2022/05/23 10:45:28;;;;;;;9.40;2.42;;;;;;;23.64;100.00;98970.97;5063913;28;20032;-72
2022/05/23 10:48:01;;;;;;;5.57;2.80;;;;;;;23.25;100.00;98888.34;5066941;28;20038;-74
2022/05/23 10:50:45;;;;;;;4.82;2.40;;;;;;;23.85;100.00;98964.72;5065418;28;20062;-73
2022/05/23 10:53:21;;;;;;;5.50;2.67;;;;;;;24.01;100.00;98942.94;5057193;28;20080;-72
2022/05/23 10:55:56;;;;;;;6.22;2.85;;;;;;;24.36;100.00;98944.59;5059848;28;20960;-73
2022/05/23 10:58:36;;;;;;;4.57;2.08;;;;;;;24.59;100.00;98938.03;5049133;28;20035;-73
2022/05/23 11:01:12;;;;;;;7.13;2.42;;;;;;;24.74;99.32;98923.41;5041784;28;20039;-72
2022/05/23 11:04:10;;;;;;;5.80;2.40;;;;;;;24.85;97.93;98920.16;5046082;28;20032;-72
2022/05/23 11:06:51;;;;;;;7.35;2.60;;;;;;;25.22;100.00;98905.28;5032996;28;20075;-74
2022/05/23 11:09:43;;;;;;;7.90;2.80;;;;;;;25.57;98.66;98913.16;5032111;28;20032;-72
2022/05/23 11:12:30;;;;;;;6.38;2.88;;;;;;;25.57;100.00;98891.63;5030991;28;20128;-72
2022/05/23 11:15:12;;;;;;;11.70;3.25;;;;;;;25.89;97.55;98910.38;5030770;28;20865;-72
2022/05/23 11:17:44;;;;;;;6.50;2.63;;;;;;;26.21;97.54;98903.28;5032929;28;20032;-73
2022/05/23 11:20:19;;;;;;;8.68;3.42;;;;;;;26.35;94.28;98891.41;5046562;28;20140;-74
2022/05/23 11:22:49;;;;;;;7.30;3.20;;;;;;;26.42;94.18;98886.81;5029990;28;21010;-73
2022/05/23 11:25:30;;;;;;;8.88;3.10;;;;;;;26.44;82.68;98881.19;5029483;28;20028;-72
2022/05/23 11:34:04;;;;;;;7.28;2.78;;;;;;;26.94;92.33;98867.88;5030029;28;20038;-73
2022/05/23 11:39:42;;;;;;;5.93;2.85;;;;;;;26.78;92.05;98867.31;5032145;28;20040;-73
2022/05/23 11:42:21;;;;;;;12.10;2.80;;;;;;;26.22;92.26;98817.94;5031797;28;20028;-75
2022/05/23 11:44:49;;;;;;;6.82;3.13;;;;;;;26.34;100.00;98860.13;5030998;28;20131;-74
2022/05/23 11:47:25;;;;;;;6.32;2.95;;;;;;;25.89;100.00;98818.03;5046782;28;20861;-75
2022/05/23 11:50:00;;;;;;;6.18;2.88;;;;;;;25.90;95.20;98865.47;5031286;28;20109;-79
2022/05/23 11:52:32;;;;;;;8.65;3.00;;;;;;;25.16;92.35;98838.91;5057753;28;20032;-74
2022/05/23 11:55:00;;;;;;;7.53;2.67;;;;;;;24.79;100.00;98877.13;5048832;28;20028;-76
2022/05/23 11:57:31;;;;;;;4.90;2.30;;;;;;;24.33;100.00;98869.78;5031111;28;20025;-74
2022/05/23 11:59:57;;;;;;;5.32;2.67;;;;;;;23.98;100.00;98864.66;5048338;28;20028;-76
2022/05/23 12:02:26;;;;;;;5.97;2.90;;;;;;;23.71;100.00;98861.88;5031581;28;20024;-74
2022/05/23 12:04:53;;;;;;;4.63;2.95;;;;;;;23.64;100.00;98863.69;5030878;28;20032;-74
2022/05/23 12:07:44;;;;;;;5.45;2.33;;;;;;;23.71;100.00;98858.34;5029950;28;20035;-74
2022/05/23 12:10:21;;;;;;;5.15;2.72;;;;;;;23.75;100.00;98859.63;5031539;28;20028;-75
2022/05/23 12:12:50;;;;;;;9.80;3.83;;;;;;;23.75;100.00;98867.66;5029895;28;20032;-75
2022/05/23 12:15:43;;;;;;;8.98;3.65;;;;;;;23.73;100.00;98858.97;5031025;28;20132;-75
2022/05/23 12:18:34;;;;;;;12.00;3.85;;;;;;;23.69;100.00;98863.09;5031704;28;20988;-74
2022/05/23 12:21:06;;;;;;;8.07;3.17;;;;;;;23.53;100.00;98858.88;5035862;28;20039;-77
2022/05/23 12:23:36;;;;;;;8.82;3.25;;;;;;;23.41;100.00;98865.81;5051425;28;20028;-76
2022/05/23 12:26:04;;;;;;;9.98;3.83;;;;;;;23.26;100.00;98868.56;5051191;28;20087;-78
2022/05/23 12:28:44;;;;;;;6.30;3.53;;;;;;;23.06;100.00;98864.06;5041228;28;20055;-78
2022/05/23 12:31:21;;;;;;;11.48;3.78;;;;;;;22.91;100.00;98864.16;5050460;28;20024;-73
2022/05/23 12:34:05;;;;;;;8.23;3.60;;;;;;;22.71;100.00;98866.63;5048870;28;20038;-75
2022/05/23 12:36:32;;;;;;;7.07;3.38;;;;;;;22.46;100.00;98848.44;5035592;28;20039;-78
2022/05/23 12:39:03;;;;;;;9.68;4.00;;;;;;;22.43;100.00;98871.09;5045193;28;20036;-74